TimeAKST,TemperatureF,Dew PointF,Humidity,Sea Level PressureIn,VisibilityMPH,Wind Direction,Wind SpeedMPH,Gust SpeedMPH,PrecipitationIn,Events,Conditions,WindDirDegrees,DateUTC
12:53 AM,37.9,32.0,79,28.89,10.0,ENE,3.5,-,N/A,,Overcast,60,2013-02-10 09:53:00
1:53 AM,39.0,32.0,76,28.90,10.0,North,3.5,-,N/A,,Overcast,360,2013-02-10 10:53:00
2:53 AM,36.0,32.0,86,28.92,10.0,Calm,Calm,-,N/A,,Overcast,0,2013-02-10 11:53:00
3:53 AM,37.9,35.1,89,28.96,10.0,SW,10.4,-,0.00,Rain,Light Rain,230,2013-02-10 12:53:00
4:53 AM,37.9,33.1,83,29.01,10.0,SSW,21.9,28.8,0.04,Rain,Light Rain,210,2013-02-10 13:53:00
5:26 AM,37.4,33.8,87,29.06,8.0,WSW,24.2,38.0,0.00,,Overcast,250,2013-02-10 14:26:00
5:31 AM,35.6,32.0,87,29.08,7.0,West,21.9,35.7,0.00,,Overcast,270,2013-02-10 14:31:00
5:39 AM,35.6,33.8,93,29.09,9.0,West,19.6,29.9,0.01,,Overcast,260,2013-02-10 14:39:00
5:53 AM,36.0,32.0,86,29.11,10.0,WSW,17.3,23.0,0.02,Rain,Light Rain,250,2013-02-10 14:53:00
6:10 AM,35.6,32.0,87,29.13,10.0,WSW,19.6,29.9,0.00,Rain,Light Rain,250,2013-02-10 15:10:00
6:53 AM,34.0,30.9,89,29.18,5.0,WSW,13.8,21.9,0.02,Rain,Light Rain,250,2013-02-10 15:53:00
7:53 AM,36.0,32.0,86,29.22,10.0,SW,9.2,-,0.00,,Overcast,220,2013-02-10 16:53:00
8:02 AM,35.6,32.0,87,29.22,10.0,WSW,6.9,-,N/A,,Overcast,240,2013-02-10 17:02:00
8:20 AM,35.6,32.0,87,29.23,10.0,West,6.9,-,N/A,,Overcast,260,2013-02-10 17:20:00
8:53 AM,36.0,32.0,86,29.26,10.0,Calm,Calm,-,N/A,,Overcast,0,2013-02-10 17:53:00
9:33 AM,35.6,30.2,81,29.28,5.0,SW,9.2,-,0.00,Snow,Light Snow,220,2013-02-10 18:33:00
9:46 AM,35.6,32.0,87,29.28,10.0,SW,6.9,-,0.00,,Overcast,230,2013-02-10 18:46:00
9:53 AM,36.0,32.0,86,29.29,10.0,WSW,5.8,-,0.00,,Overcast,240,2013-02-10 18:53:00
10:22 AM,35.6,30.2,81,29.31,7.0,SW,11.5,-,0.01,Snow,Light Snow,230,2013-02-10 19:22:00
10:53 AM,36.0,32.0,86,29.33,3.0,WSW,9.2,-,0.02,Rain,Light Rain,250,2013-02-10 19:53:00
11:07 AM,33.8,30.2,87,29.33,2.0,West,9.2,-,0.01,Snow,Light Snow,260,2013-02-10 20:07:00
11:35 AM,33.8,30.2,87,29.34,2.0,WSW,8.1,-,0.03,Snow,Light Snow,250,2013-02-10 20:35:00
11:48 AM,33.8,32.0,93,29.35,8.0,WSW,9.2,-,0.04,Snow,Light Snow,250,2013-02-10 20:48:00
11:53 AM,34.0,32.0,92,29.36,3.0,West,9.2,-,0.04,Snow,Light Snow,260,2013-02-10 20:53:00
12:00 PM,33.8,30.2,87,29.35,2.0,West,8.1,-,0.01,Snow,Light Snow,260,2013-02-10 21:00:00
12:10 PM,33.8,30.2,87,29.36,2.0,West,6.9,-,0.01,Snow,Light Snow,260,2013-02-10 21:10:00
12:28 PM,33.8,30.2,87,29.36,5.0,WSW,6.9,-,0.02,Snow,Light Snow,250,2013-02-10 21:28:00
12:36 PM,33.8,32.0,93,29.36,5.0,West,5.8,-,0.02,Snow,Light Snow,260,2013-02-10 21:36:00
12:53 PM,35.1,30.9,85,29.37,10.0,West,3.5,-,0.02,,Overcast,260,2013-02-10 21:53:00
1:53 PM,36.0,27.0,70,29.37,10.0,SSW,5.8,-,N/A,,Overcast,210,2013-02-10 22:53:00
2:36 PM,33.8,28.4,81,29.38,3.0,WSW,4.6,-,0.00,Snow,Light Snow,250,2013-02-10 23:36:00
2:53 PM,34.0,30.0,85,29.39,3.0,West,3.5,-,0.00,Snow,Light Snow,280,2013-02-10 23:53:00
3:53 PM,34.0,30.0,85,29.39,3.0,Calm,Calm,-,0.00,Snow,Light Snow,0,2013-02-11 00:53:00
4:00 PM,33.8,30.2,87,29.39,2.0,Calm,Calm,-,0.00,Snow,Light Snow,0,2013-02-11 01:00:00
4:12 PM,33.8,30.2,87,29.40,3.0,Calm,Calm,-,0.00,Snow,Light Snow,0,2013-02-11 01:12:00
4:53 PM,34.0,30.9,89,29.41,10.0,NNW,3.5,-,0.00,,Overcast,330,2013-02-11 01:53:00
5:53 PM,36.0,26.1,67,29.42,10.0,SSW,5.8,-,N/A,,Overcast,200,2013-02-11 02:53:00
6:53 PM,36.0,25.0,64,29.44,10.0,South,4.6,-,N/A,,Mostly Cloudy,190,2013-02-11 03:53:00
7:53 PM,33.1,28.9,85,29.46,6.0,West,4.6,-,0.00,Snow,Light Snow,260,2013-02-11 04:53:00
8:09 PM,33.8,28.4,81,29.46,6.0,SW,10.4,-,0.00,Snow,Light Snow,220,2013-02-11 05:09:00
8:17 PM,33.8,28.4,81,29.46,1.8,SSW,12.7,-,0.00,Snow,Light Snow,210,2013-02-11 05:17:00
8:27 PM,33.8,30.2,87,29.46,1.5,SW,8.1,17.3,0.01,Snow,Light Snow,220,2013-02-11 05:27:00
8:53 PM,32.0,30.0,92,29.48,1.0,WSW,4.6,-,0.03,Snow,Light Snow,250,2013-02-11 05:53:00
9:01 PM,32.0,28.4,87,29.48,2.5,WSW,10.4,-,0.00,Snow,Light Snow,240,2013-02-11 06:01:00
9:05 PM,32.0,28.4,87,29.48,1.8,WSW,9.2,-,0.00,Snow,Light Snow,240,2013-02-11 06:05:00
9:12 PM,32.0,30.2,93,29.48,0.8,WSW,8.1,-,0.01,Snow,Light Snow,250,2013-02-11 06:12:00
9:24 PM,30.2,26.6,86,29.49,1.0,WSW,8.1,-,0.02,Snow,Light Snow,250,2013-02-11 06:24:00
9:43 PM,32.0,26.6,80,29.50,3.0,West,10.4,-,0.02,Snow,Light Snow,260,2013-02-11 06:43:00
9:53 PM,32.0,25.0,75,29.51,6.0,West,8.1,-,0.02,Snow,Light Snow,270,2013-02-11 06:53:00
10:19 PM,32.0,23.0,69,29.52,10.0,WSW,11.5,-,0.00,,Overcast,250,2013-02-11 07:19:00
10:53 PM,30.9,19.0,61,29.54,10.0,WSW,15.0,-,0.00,,Overcast,250,2013-02-11 07:53:00
11:53 PM,30.0,18.0,61,29.58,10.0,WSW,16.1,24.2,N/A,,Overcast,250,2013-02-11 08:53:00